Time;durP1;ratioP1;P1;durP2;ratioP2;P2;SDS_P1;SDS_P2;PMS_P1;PMS_P2;Temp;Humidity;BMP_temperature;BMP_pressure;BME280_temperature;BME280_humidity;BME280_pressure;Samples;Min_cycle;Max_cycle;Signal;HPM_P1;HPM_P2
2023/06/19 00:00:26;;;;;;;6.78;4.10;;;;;;;;;;4991413;28;20064;-74
2023/06/19 00:02:52;;;;;;;6.10;3.72;;;;;;;;;;4991551;28;20117;-74
2023/06/19 00:05:17;;;;;;;7.57;4.28;;;;;;;;;;4989751;28;20108;-73
2023/06/19 00:07:42;;;;;;;7.87;3.97;;;;;;;;;;4996537;28;20041;-73
2023/06/19 00:10:08;;;;;;;6.97;4.28;;;;;;;;;;4991275;28;20272;-74
2023/06/19 00:12:33;;;;;;;11.00;4.68;;;;;;;;;;4991086;28;20101;-73
2023/06/19 00:14:58;;;;;;;7.70;4.37;;;;;;;;;;4993655;28;20034;-74
2023/06/19 00:17:25;;;;;;;5.45;3.53;;;;;;;;;;4993268;28;20273;-74
2023/06/19 00:19:51;;;;;;;6.25;3.88;;;;;;;;;;5000286;28;20022;-73
2023/06/19 00:22:16;;;;;;;5.40;4.00;;;;;;;;;;4991025;28;20031;-74
2023/06/19 00:24:41;;;;;;;6.03;3.80;;;;;;;;;;4994936;28;20646;-74
2023/06/19 00:27:06;;;;;;;5.97;4.00;;;;;;;;;;4995787;28;20026;-74
2023/06/19 00:29:32;;;;;;;5.38;3.58;;;;;;;;;;4999329;28;20098;-74
2023/06/19 00:31:58;;;;;;;5.40;3.83;;;;;;;;;;4991450;28;20029;-74
2023/06/19 00:34:24;;;;;;;8.77;4.32;;;;;;;;;;4991721;28;20022;-74
2023/06/19 00:36:49;;;;;;;5.75;3.58;;;;;;;;;;4997261;28;20449;-74
2023/06/19 00:39:14;;;;;;;8.45;4.03;;;;;;;;;;4986877;28;20470;-74
2023/06/19 00:41:40;;;;;;;6.37;3.67;;;;;;;;;;4986213;28;20069;-74
2023/06/19 00:44:05;;;;;;;5.68;3.70;;;;;;;;;;4994833;28;20030;-74
2023/06/19 00:46:30;;;;;;;5.90;3.97;;;;;;;;;;4992855;28;20027;-74
2023/06/19 00:48:56;;;;;;;7.33;4.60;;;;;;;;;;4991638;28;20288;-74
2023/06/19 00:51:21;;;;;;;9.27;4.28;;;;;;;;;;4988538;28;20269;-74
2023/06/19 00:53:46;;;;;;;7.00;4.43;;;;;;;;;;5001038;28;20072;-74
2023/06/19 00:56:12;;;;;;;8.07;4.53;;;;;;;;;;4991621;28;20019;-74
2023/06/19 00:58:37;;;;;;;7.32;4.47;;;;;;;;;;4989470;28;20478;-74
2023/06/19 01:01:02;;;;;;;6.65;4.38;;;;;;;;;;5000985;28;20024;-74
2023/06/19 01:03:27;;;;;;;6.57;4.25;;;;;;;;;;4991536;28;20157;-74
2023/06/19 01:05:54;;;;;;;6.67;3.93;;;;;;;;;;4994493;28;20043;-73
2023/06/19 01:08:37;;;;;;;7.10;4.80;;;;;;;;;;5000382;28;20281;-73
2023/06/19 01:11:03;;;;;;;8.52;4.47;;;;;;;;;;4987285;28;20105;-73
2023/06/19 01:13:37;;;;;;;6.97;4.45;;;;;;;;;;4994026;28;20485;-74
2023/06/19 01:16:04;;;;;;;7.43;4.55;;;;;;;;;;4993043;28;20021;-74
2023/06/19 01:18:31;;;;;;;6.47;4.50;;;;;;;;;;4990300;28;20026;-74
2023/06/19 01:20:56;;;;;;;8.77;6.03;;;;;;;;;;4989399;28;20023;-74
2023/06/19 01:23:21;;;;;;;6.77;4.33;;;;;;;;;;4998351;28;20024;-74
2023/06/19 01:25:46;;;;;;;8.33;4.97;;;;;;;;;;4991144;28;20269;-74
2023/06/19 01:28:12;;;;;;;8.07;4.80;;;;;;;;;;4995753;28;20285;-74
2023/06/19 01:30:40;;;;;;;6.05;4.50;;;;;;;;;;4994849;28;20045;-74
2023/06/19 01:33:20;;;;;;;6.85;4.70;;;;;;;;;;4993767;28;20029;-74
2023/06/19 01:35:46;;;;;;;5.85;4.43;;;;;;;;;;4995030;28;20049;-74
2023/06/19 01:38:12;;;;;;;7.38;5.32;;;;;;;;;;4994977;28;20068;-74
2023/06/19 01:40:38;;;;;;;7.55;5.13;;;;;;;;;;4991563;28;20042;-74
2023/06/19 01:43:04;;;;;;;6.85;4.82;;;;;;;;;;4996235;28;20550;-74
2023/06/19 01:45:29;;;;;;;6.85;4.65;;;;;;;;;;4987417;28;20018;-74
2023/06/19 01:47:55;;;;;;;6.75;4.93;;;;;;;;;;4997523;28;20545;-74
2023/06/19 01:50:23;;;;;;;6.95;4.82;;;;;;;;;;4992592;28;20496;-74
2023/06/19 01:52:49;;;;;;;7.72;5.28;;;;;;;;;;4985653;28;20045;-74
2023/06/19 01:55:14;;;;;;;7.55;5.10;;;;;;;;;;4985656;28;20557;-74
2023/06/19 01:57:39;;;;;;;7.05;5.07;;;;;;;;;;4990794;28;20022;-74
2023/06/19 02:00:07;;;;;;;6.90;5.17;;;;;;;;;;4992136;28;20037;-74
2023/06/19 02:02:32;;;;;;;9.75;5.07;;;;;;;;;;4991554;28;20280;-74
2023/06/19 02:04:58;;;;;;;8.43;5.45;;;;;;;;;;4981077;28;20486;-74
2023/06/19 02:07:23;;;;;;;7.67;5.73;;;;;;;;;;4991411;28;20101;-73
2023/06/19 02:09:48;;;;;;;11.53;5.47;;;;;;;;;;4987499;28;20619;-73
2023/06/19 02:12:13;;;;;;;9.53;5.50;;;;;;;;;;4990205;28;20281;-73
2023/06/19 02:14:38;;;;;;;10.45;5.03;;;;;;;;;;4990461;28;20046;-73
2023/06/19 02:17:04;;;;;;;13.83;5.73;;;;;;;;;;4995887;28;20025;-74
2023/06/19 02:19:29;;;;;;;11.85;5.65;;;;;;;;;;4993971;28;20117;-74
2023/06/19 02:21:54;;;;;;;9.82;5.78;;;;;;;;;;4985340;28;20022;-74
2023/06/19 02:24:19;;;;;;;9.80;5.70;;;;;;;;;;4992249;28;20434;-74
2023/06/19 02:26:45;;;;;;;8.90;5.55;;;;;;;;;;4993272;28;20264;-74
2023/06/19 02:29:10;;;;;;;12.70;6.60;;;;;;;;;;4989252;28;20485;-74
2023/06/19 02:31:35;;;;;;;8.57;5.65;;;;;;;;;;4990827;28;20038;-74
2023/06/19 02:34:00;;;;;;;7.93;5.80;;;;;;;;;;4990473;28;20078;-74
2023/06/19 02:36:26;;;;;;;8.25;5.80;;;;;;;;;;4988919;28;20578;-74
2023/06/19 02:38:51;;;;;;;7.33;5.47;;;;;;;;;;4990287;28;20355;-74
2023/06/19 02:41:18;;;;;;;10.68;6.18;;;;;;;;;;4989276;28;20257;-74
2023/06/19 02:43:44;;;;;;;14.75;6.75;;;;;;;;;;4970036;28;20037;-74
2023/06/19 02:46:09;;;;;;;9.05;6.18;;;;;;;;;;4991553;28;20022;-74
2023/06/19 02:48:34;;;;;;;9.68;6.20;;;;;;;;;;4973363;28;20023;-74
2023/06/19 02:51:00;;;;;;;12.90;6.18;;;;;;;;;;4988539;28;20018;-74
2023/06/19 02:53:25;;;;;;;10.68;6.38;;;;;;;;;;4991545;28;20379;-74
2023/06/19 02:55:50;;;;;;;8.90;5.90;;;;;;;;;;4993877;28;20046;-74
2023/06/19 02:58:15;;;;;;;9.40;6.25;;;;;;;;;;4988441;28;20300;-74
2023/06/19 03:00:40;;;;;;;9.10;6.60;;;;;;;;;;4986675;28;20026;-74
2023/06/19 03:03:05;;;;;;;9.87;6.37;;;;;;;;;;4994239;28;20033;-74
2023/06/19 03:05:31;;;;;;;9.47;6.33;;;;;;;;;;4991009;28;20507;-74
2023/06/19 03:07:56;;;;;;;11.13;6.72;;;;;;;;;;4988582;28;20018;-74
2023/06/19 03:10:21;;;;;;;9.43;6.37;;;;;;;;;;4989039;28;20164;-74
2023/06/19 03:12:46;;;;;;;10.65;6.78;;;;;;;;;;4985940;28;20029;-74
2023/06/19 03:15:11;;;;;;;11.00;6.80;;;;;;;;;;4993035;28;20064;-73
2023/06/19 03:17:37;;;;;;;9.17;6.53;;;;;;;;;;4986070;28;20025;-74
2023/06/19 03:20:02;;;;;;;9.27;6.50;;;;;;;;;;4990793;28;20729;-74
2023/06/19 03:22:27;;;;;;;9.50;6.30;;;;;;;;;;4980323;28;20099;-73
2023/06/19 03:24:52;;;;;;;9.27;6.97;;;;;;;;;;4974155;28;20023;-74
2023/06/19 03:27:18;;;;;;;12.63;7.28;;;;;;;;;;4992376;28;20312;-74
2023/06/19 03:29:43;;;;;;;11.85;7.05;;;;;;;;;;4984808;28;20089;-74
2023/06/19 03:32:08;;;;;;;9.63;7.15;;;;;;;;;;4993987;28;20476;-74
2023/06/19 03:34:33;;;;;;;15.63;6.90;;;;;;;;;;4989429;28;20478;-74
2023/06/19 03:36:59;;;;;;;10.18;7.10;;;;;;;;;;4989907;28;20262;-74
2023/06/19 03:39:24;;;;;;;10.80;6.37;;;;;;;;;;4991777;28;20033;-74
2023/06/19 03:41:49;;;;;;;12.50;7.32;;;;;;;;;;4989111;28;20783;-74
2023/06/19 03:44:15;;;;;;;9.43;6.97;;;;;;;;;;4990141;28;20026;-74
2023/06/19 03:46:40;;;;;;;10.43;7.10;;;;;;;;;;4995931;28;20030;-74
2023/06/19 03:49:06;;;;;;;11.85;6.55;;;;;;;;;;4992923;28;20470;-74
2023/06/19 03:51:32;;;;;;;13.63;7.70;;;;;;;;;;4991831;28;20089;-73
2023/06/19 03:53:57;;;;;;;14.43;8.40;;;;;;;;;;4983159;28;20478;-74
2023/06/19 03:56:22;;;;;;;10.10;7.47;;;;;;;;;;4994069;28;20033;-74
2023/06/19 03:58:47;;;;;;;15.07;7.70;;;;;;;;;;4993804;28;20022;-74
2023/06/19 04:01:13;;;;;;;13.70;7.87;;;;;;;;;;4999556;28;20068;-74
2023/06/19 04:03:38;;;;;;;12.80;7.57;;;;;;;;;;4993050;28;20309;-73
2023/06/19 04:06:03;;;;;;;10.63;6.93;;;;;;;;;;4993786;28;20038;-73
2023/06/19 04:08:28;;;;;;;8.10;5.50;;;;;;;;;;4993776;28;20356;-74
2023/06/19 04:10:54;;;;;;;13.47;5.00;;;;;;;;;;4990516;28;20030;-74
2023/06/19 04:13:19;;;;;;;10.93;5.05;;;;;;;;;;4992997;28;20272;-73
2023/06/19 04:15:44;;;;;;;9.20;4.63;;;;;;;;;;4994099;28;20385;-73
2023/06/19 04:18:09;;;;;;;8.88;4.80;;;;;;;;;;4994157;28;20073;-73
2023/06/19 04:20:35;;;;;;;12.05;3.90;;;;;;;;;;4987910;28;20481;-73
2023/06/19 04:23:00;;;;;;;8.20;4.30;;;;;;;;;;4992113;28;20030;-73
2023/06/19 04:25:25;;;;;;;9.43;4.18;;;;;;;;;;4991606;28;20128;-73
2023/06/19 04:27:50;;;;;;;5.07;3.30;;;;;;;;;;4974344;28;20022;-73
2023/06/19 04:30:16;;;;;;;5.23;3.67;;;;;;;;;;4991087;28;20050;-73
2023/06/19 04:32:41;;;;;;;5.67;3.77;;;;;;;;;;4988647;28;20022;-73
2023/06/19 04:35:09;;;;;;;7.80;3.70;;;;;;;;;;4992467;28;20482;-73
2023/06/19 04:37:34;;;;;;;5.80;3.67;;;;;;;;;;4991032;28;20022;-73
2023/06/19 04:40:00;;;;;;;11.40;3.47;;;;;;;;;;4992563;28;20029;-73
2023/06/19 04:42:26;;;;;;;6.13;3.35;;;;;;;;;;4993465;28;20069;-73
2023/06/19 04:44:51;;;;;;;9.13;4.50;;;;;;;;;;4986446;28;20031;-73
2023/06/19 04:47:17;;;;;;;8.68;4.07;;;;;;;;;;4992004;28;20037;-73
2023/06/19 04:49:43;;;;;;;8.05;4.03;;;;;;;;;;4991372;28;20034;-73
2023/06/19 04:52:08;;;;;;;8.48;3.83;;;;;;;;;;4987759;28;20030;-73
2023/06/19 04:54:33;;;;;;;9.35;3.70;;;;;;;;;;4973918;28;20010;-73
2023/06/19 04:56:59;;;;;;;8.07;4.07;;;;;;;;;;4991866;28;20018;-73
2023/06/19 04:59:24;;;;;;;10.40;3.63;;;;;;;;;;4987633;28;20524;-73
2023/06/19 05:01:51;;;;;;;8.00;4.00;;;;;;;;;;4987983;28;20105;-73
2023/06/19 05:04:16;;;;;;;9.05;4.13;;;;;;;;;;4993014;28;20081;-73
2023/06/19 05:06:42;;;;;;;9.23;4.00;;;;;;;;;;4991552;28;20022;-73
2023/06/19 05:09:07;;;;;;;5.60;3.25;;;;;;;;;;4991248;28;20281;-73
2023/06/19 05:11:33;;;;;;;8.47;4.30;;;;;;;;;;4984903;28;20034;-73
2023/06/19 05:13:58;;;;;;;6.78;3.30;;;;;;;;;;4985202;28;20018;-73
2023/06/19 05:16:24;;;;;;;7.68;3.40;;;;;;;;;;4989549;28;20089;-73
2023/06/19 05:18:51;;;;;;;5.50;3.17;;;;;;;;;;4988980;28;20532;-73
2023/06/19 05:21:16;;;;;;;10.43;3.47;;;;;;;;;;4987168;28;20049;-73
2023/06/19 05:23:41;;;;;;;7.63;3.67;;;;;;;;;;4988981;28;20061;-73
2023/06/19 05:26:07;;;;;;;9.68;4.20;;;;;;;;;;4987002;28;20022;-73
2023/06/19 05:28:32;;;;;;;5.87;2.90;;;;;;;;;;4986305;28;20109;-73
2023/06/19 05:30:57;;;;;;;6.28;3.05;;;;;;;;;;4989769;28;20258;-73
2023/06/19 05:33:23;;;;;;;6.30;3.58;;;;;;;;;;4983388;28;20031;-73
2023/06/19 05:35:52;;;;;;;7.53;3.08;;;;;;;;;;4988594;28;20519;-73
2023/06/19 05:38:17;;;;;;;7.63;4.07;;;;;;;;;;4983868;28;20227;-73
2023/06/19 05:40:42;;;;;;;11.70;4.25;;;;;;;;;;4982468;28;20619;-73
2023/06/19 05:43:07;;;;;;;6.10;3.30;;;;;;;;;;4986038;28;20026;-73
2023/06/19 05:45:33;;;;;;;10.13;3.23;;;;;;;;;;4988414;28;20033;-73
2023/06/19 05:47:58;;;;;;;5.43;3.20;;;;;;;;;;4985488;28;21119;-73
2023/06/19 05:50:23;;;;;;;4.27;2.43;;;;;;;;;;4984961;28;20386;-74
2023/06/19 05:52:48;;;;;;;5.47;3.20;;;;;;;;;;4985104;28;20273;-73
2023/06/19 05:55:13;;;;;;;3.70;2.67;;;;;;;;;;4980357;28;20022;-73
2023/06/19 05:57:39;;;;;;;5.77;3.00;;;;;;;;;;4986040;28;20041;-73
2023/06/19 06:00:05;;;;;;;3.95;2.70;;;;;;;;;;4983976;28;20141;-73
2023/06/19 06:02:30;;;;;;;4.32;2.40;;;;;;;;;;4974142;28;20486;-73
2023/06/19 06:04:56;;;;;;;5.00;2.53;;;;;;;;;;4989735;28;20041;-73
2023/06/19 06:07:21;;;;;;;4.43;2.17;;;;;;;;;;4980534;28;20293;-73
2023/06/19 06:09:46;;;;;;;3.90;2.38;;;;;;;;;;4987371;28;20041;-73
2023/06/19 06:12:12;;;;;;;7.27;2.33;;;;;;;;;;4986304;28;20018;-73
2023/06/19 06:14:37;;;;;;;3.97;2.23;;;;;;;;;;4986534;28;20124;-73
2023/06/19 06:17:05;;;;;;;4.57;2.27;;;;;;;;;;4986261;28;20045;-74
2023/06/19 06:19:30;;;;;;;4.95;2.00;;;;;;;;;;4982945;28;20046;-74
2023/06/19 06:21:55;;;;;;;5.07;1.67;;;;;;;;;;4987440;28;20063;-74
2023/06/19 06:24:20;;;;;;;4.60;2.30;;;;;;;;;;4986196;28;20019;-73
2023/06/19 06:26:45;;;;;;;4.47;2.20;;;;;;;;;;4984325;28;20034;-73
2023/06/19 06:29:10;;;;;;;3.30;1.93;;;;;;;;;;4988291;28;20109;-73
2023/06/19 06:31:38;;;;;;;1.93;1.17;;;;;;;;;;4987304;28;20761;-73
2023/06/19 06:34:03;;;;;;;2.13;1.63;;;;;;;;;;4983759;28;20099;-74
2023/06/19 06:36:29;;;;;;;2.75;1.60;;;;;;;;;;4984850;28;20109;-73
2023/06/19 06:38:54;;;;;;;3.42;1.90;;;;;;;;;;4996463;28;20026;-73
2023/06/19 06:41:19;;;;;;;3.43;1.67;;;;;;;;;;4981225;28;20105;-73
2023/06/19 06:43:44;;;;;;;6.37;1.40;;;;;;;;;;4983695;28;20396;-73
2023/06/19 06:46:10;;;;;;;2.90;1.50;;;;;;;;;;4976922;28;20030;-73
2023/06/19 06:48:35;;;;;;;8.63;1.50;;;;;;;;;;4980949;28;20049;-74
2023/06/19 06:51:01;;;;;;;3.47;1.30;;;;;;;;;;4981714;28;20460;-73
2023/06/19 06:53:31;;;;;;;4.75;1.75;;;;;;;;;;4978482;28;20042;-73
2023/06/19 06:55:57;;;;;;;4.07;1.58;;;;;;;;;;4982865;28;20022;-73
2023/06/19 06:58:22;;;;;;;2.67;1.08;;;;;;;;;;4963745;28;20022;-73
2023/06/19 07:00:47;;;;;;;3.70;1.63;;;;;;;;;;4984979;28;20023;-73
2023/06/19 07:03:13;;;;;;;2.58;1.20;;;;;;;;;;4983179;28;20034;-73
2023/06/19 07:05:38;;;;;;;3.30;1.17;;;;;;;;;;4986987;28;20026;-73
2023/06/19 07:08:03;;;;;;;3.05;1.38;;;;;;;;;;4983359;28;20061;-73
2023/06/19 07:10:29;;;;;;;6.35;1.30;;;;;;;;;;4988163;28;20109;-73
2023/06/19 07:12:54;;;;;;;2.72;1.27;;;;;;;;;;4979543;28;20015;-73
2023/06/19 07:15:19;;;;;;;2.88;1.23;;;;;;;;;;4979738;28;20026;-73
2023/06/19 07:17:45;;;;;;;1.70;1.17;;;;;;;;;;4976873;28;20456;-73
2023/06/19 07:20:10;;;;;;;2.88;1.50;;;;;;;;;;4981767;28;20308;-73
2023/06/19 07:22:36;;;;;;;3.58;1.67;;;;;;;;;;4990498;28;20051;-73
2023/06/19 07:25:01;;;;;;;3.10;1.45;;;;;;;;;;4992053;28;20041;-73
2023/06/19 07:27:28;;;;;;;1.63;1.35;;;;;;;;;;4981236;28;20076;-73
2023/06/19 07:29:53;;;;;;;3.25;1.65;;;;;;;;;;4983152;28;20045;-73
2023/06/19 07:32:19;;;;;;;2.60;1.50;;;;;;;;;;4990341;28;20019;-73
2023/06/19 07:34:45;;;;;;;4.15;1.30;;;;;;;;;;4983682;28;20026;-73
2023/06/19 07:37:17;;;;;;;5.22;1.50;;;;;;;;;;4990093;28;20060;-74
2023/06/19 07:39:44;;;;;;;3.50;1.50;;;;;;;;;;4983310;28;20048;-74
2023/06/19 07:42:10;;;;;;;3.92;1.65;;;;;;;;;;4987360;28;20119;-73
2023/06/19 07:44:35;;;;;;;5.35;1.50;;;;;;;;;;4990893;28;20014;-74
2023/06/19 07:47:00;;;;;;;2.37;1.07;;;;;;;;;;4987119;28;20029;-73
2023/06/19 07:49:25;;;;;;;6.93;1.50;;;;;;;;;;4977609;28;20517;-73
2023/06/19 07:51:51;;;;;;;4.77;1.47;;;;;;;;;;4987220;28;20052;-73
2023/06/19 07:54:16;;;;;;;3.53;1.77;;;;;;;;;;4979459;28;20101;-73
2023/06/19 07:56:41;;;;;;;5.33;1.30;;;;;;;;;;4978082;28;20034;-73
2023/06/19 07:59:06;;;;;;;1.43;1.03;;;;;;;;;;4987822;28;20270;-70
2023/06/19 08:01:31;;;;;;;2.20;1.23;;;;;;;;;;4986732;28;20294;-73
2023/06/19 08:03:57;;;;;;;1.40;1.13;;;;;;;;;;4986254;28;20301;-73
2023/06/19 08:06:22;;;;;;;7.27;1.50;;;;;;;;;;4985996;28;20058;-73
2023/06/19 08:08:47;;;;;;;4.50;1.40;;;;;;;;;;4987385;28;20364;-73
2023/06/19 08:11:12;;;;;;;3.63;1.90;;;;;;;;;;4985152;28;20274;-73
2023/06/19 08:13:37;;;;;;;6.00;1.53;;;;;;;;;;4980858;28;20278;-71
2023/06/19 08:16:02;;;;;;;4.37;1.53;;;;;;;;;;4983847;28;20026;-73
2023/06/19 08:18:28;;;;;;;3.63;1.73;;;;;;;;;;4986775;28;20106;-73
2023/06/19 08:20:53;;;;;;;6.07;1.60;;;;;;;;;;4988675;28;20030;-74
2023/06/19 08:23:18;;;;;;;4.40;1.50;;;;;;;;;;4982943;28;20504;-73
2023/06/19 08:25:43;;;;;;;7.80;3.20;;;;;;;;;;4984564;28;20281;-74
2023/06/19 08:28:09;;;;;;;6.50;1.60;;;;;;;;;;4987403;28;20102;-74
2023/06/19 08:30:34;;;;;;;8.57;1.88;;;;;;;;;;4985602;28;20015;-74
2023/06/19 08:32:59;;;;;;;3.80;1.67;;;;;;;;;;4981502;28;20667;-73
2023/06/19 08:35:24;;;;;;;3.83;1.90;;;;;;;;;;4981499;28;20823;-72
2023/06/19 08:37:50;;;;;;;7.67;1.73;;;;;;;;;;4981844;28;20832;-73
2023/06/19 08:40:15;;;;;;;4.90;1.60;;;;;;;;;;4989724;28;20073;-73
2023/06/19 08:42:42;;;;;;;8.07;1.63;;;;;;;;;;4992421;28;20308;-73
2023/06/19 08:45:08;;;;;;;2.22;1.55;;;;;;;;;;4990010;28;20305;-74
2023/06/19 08:47:34;;;;;;;6.15;2.28;;;;;;;;;;4981888;28;20026;-73
2023/06/19 08:49:59;;;;;;;3.30;1.45;;;;;;;;;;4982218;28;20085;-72
2023/06/19 08:52:24;;;;;;;7.18;2.05;;;;;;;;;;4977217;28;21818;-73
2023/06/19 08:54:50;;;;;;;5.13;1.70;;;;;;;;;;4982950;28;20025;-73
2023/06/19 08:57:15;;;;;;;3.13;1.50;;;;;;;;;;4976633;28;20022;-72
2023/06/19 08:59:47;;;;;;;5.10;1.70;;;;;;;;;;4983871;28;20414;-73
2023/06/19 09:02:12;;;;;;;8.55;1.60;;;;;;;;;;4982379;28;20098;-73
2023/06/19 09:04:38;;;;;;;3.47;1.50;;;;;;;;;;4986459;28;20533;-73
2023/06/19 09:07:03;;;;;;;5.43;1.60;;;;;;;;;;4983677;28;20289;-73
2023/06/19 09:09:29;;;;;;;2.15;1.45;;;;;;;;;;4983806;28;20025;-73
2023/06/19 09:11:58;;;;;;;3.50;1.33;;;;;;;;;;4979509;28;20089;-74
2023/06/19 09:14:30;;;;;;;4.60;1.83;;;;;;;;;;4981466;28;20035;-72
2023/06/19 09:16:55;;;;;;;3.17;1.38;;;;;;;;;;4984067;28;20026;-74
2023/06/19 09:19:21;;;;;;;6.73;1.33;;;;;;;;;;4982011;28;20033;-72
2023/06/19 09:21:46;;;;;;;2.10;1.70;;;;;;;;;;4984357;28;20439;-73
2023/06/19 09:24:11;;;;;;;5.70;2.27;;;;;;;;;;4980924;28;20019;-73
2023/06/19 09:26:36;;;;;;;7.73;2.80;;;;;;;;;;4982813;28;20057;-72
2023/06/19 09:29:15;;;;;;;5.87;2.73;;;;;;;;;;4985796;28;20065;-74
2023/06/19 09:31:41;;;;;;;6.55;2.75;;;;;;;;;;4985560;28;20596;-73
2023/06/19 09:34:06;;;;;;;5.82;2.92;;;;;;;;;;4983667;28;20042;-72
2023/06/19 09:36:32;;;;;;;10.73;2.67;;;;;;;;;;4980699;28;20474;-72
2023/06/19 09:38:58;;;;;;;5.70;2.35;;;;;;;;;;4985580;28;20026;-72
2023/06/19 09:41:24;;;;;;;8.38;2.55;;;;;;;;;;4986165;28;20039;-72
2023/06/19 09:43:54;;;;;;;4.10;2.55;;;;;;;;;;4990608;28;20392;-72
2023/06/19 09:46:19;;;;;;;6.18;2.63;;;;;;;;;;4977247;28;20405;-72
2023/06/19 09:48:46;;;;;;;8.60;2.60;;;;;;;;;;4985311;28;20026;-72
2023/06/19 09:51:25;;;;;;;7.63;3.03;;;;;;;;;;4987637;28;20034;-72
2023/06/19 09:53:51;;;;;;;5.15;3.33;;;;;;;;;;4963053;28;20437;-72
2023/06/19 09:56:21;;;;;;;9.40;3.47;;;;;;;;;;4987024;28;20054;-72
2023/06/19 09:58:47;;;;;;;3.75;2.45;;;;;;;;;;4984067;28;20031;-72
2023/06/19 10:01:13;;;;;;;4.97;2.80;;;;;;;;;;4976046;28;20037;-72
2023/06/19 10:03:40;;;;;;;9.00;2.95;;;;;;;;;;4992643;28;20139;-72
2023/06/19 10:06:05;;;;;;;7.13;3.70;;;;;;;;;;4989330;28;20034;-72
2023/06/19 10:08:31;;;;;;;4.78;3.00;;;;;;;;;;4980728;28;20482;-72
2023/06/19 10:10:57;;;;;;;7.97;3.70;;;;;;;;;;4982165;28;20070;-72
2023/06/19 10:13:33;;;;;;;6.70;3.00;;;;;;;;;;5056156;28;20484;-70
2023/06/19 10:15:59;;;;;;;7.78;3.22;;;;;;;;;;5056276;28;20103;-71
2023/06/19 10:18:28;;;;;;;13.02;3.78;;;;;;;;;;5059710;28;20032;-71
2023/06/19 10:20:54;;;;;;;8.85;3.65;;;;;;;;;;5062412;28;20077;-71
2023/06/19 10:23:21;;;;;;;11.18;3.25;;;;;;;;;;5064122;28;20028;-72
2023/06/19 10:25:48;;;;;;;6.72;2.78;;;;;;;;;;5065767;28;20021;-71
2023/06/19 10:28:32;;;;;;;14.80;3.38;;;;;;;;;;5062101;28;20024;-71
2023/06/19 10:30:59;;;;;;;7.53;3.83;;;;;;;;;;5064736;28;20048;-71
2023/06/19 10:33:25;;;;;;;10.15;3.90;;;;;;;;;;5057727;28;20025;-71
2023/06/19 10:35:50;;;;;;;10.07;3.25;;;;;;;;;;5064951;28;20020;-70
2023/06/19 10:38:16;;;;;;;10.27;3.80;;;;;;;;;;5066610;28;20100;-70
2023/06/19 10:40:42;;;;;;;6.60;3.45;;;;;;;;;;5061898;28;20274;-70
2023/06/19 10:43:08;;;;;;;11.38;2.83;;;;;;;;;;5065390;28;20104;-70
2023/06/19 10:45:33;;;;;;;13.88;3.13;;;;;;;;;;5061949;28;20394;-70
2023/06/19 10:48:01;;;;;;;11.33;3.57;;;;;;;;;;5062336;28;20078;-70
2023/06/19 10:50:26;;;;;;;4.72;3.08;;;;;;;;;;5063154;28;20539;-70
2023/06/19 10:52:54;;;;;;;6.97;2.90;;;;;;;;;;5060716;28;20028;-70
2023/06/19 10:55:20;;;;;;;9.88;3.53;;;;;;;;;;5064501;28;20267;-71
2023/06/19 10:57:46;;;;;;;6.63;3.40;;;;;;;;;;5064837;28;20021;-70
2023/06/19 11:00:12;;;;;;;9.45;3.58;;;;;;;;;;5063996;28;20019;-70
2023/06/19 11:02:39;;;;;;;7.72;3.45;;;;;;;;;;5066015;28;20016;-70
2023/06/19 11:05:05;;;;;;;8.10;3.50;;;;;;;;;;5063899;28;20091;-70
2023/06/19 11:07:31;;;;;;;6.30;3.35;;;;;;;;;;5063460;28;20066;-70
2023/06/19 11:09:56;;;;;;;10.93;3.60;;;;;;;;;;5061070;28;20730;-70
2023/06/19 11:12:22;;;;;;;7.30;3.30;;;;;;;;;;5065881;28;20020;-70
2023/06/19 11:14:48;;;;;;;10.43;3.87;;;;;;;;;;5066358;28;20252;-70
2023/06/19 11:17:13;;;;;;;8.40;3.47;;;;;;;;;;5061411;28;20274;-70
2023/06/19 11:19:41;;;;;;;5.88;3.75;;;;;;;;;;5062884;28;20013;-70
2023/06/19 11:22:07;;;;;;;10.00;3.67;;;;;;;;;;5064278;28;20473;-70
2023/06/19 11:24:32;;;;;;;11.10;3.67;;;;;;;;;;5053422;28;20028;-70
2023/06/19 11:26:59;;;;;;;8.23;2.07;;;;;;;;;;5049316;28;20029;-70
2023/06/19 11:29:29;;;;;;;8.65;3.53;;;;;;;;;;5048495;28;20303;-70
2023/06/19 11:32:08;;;;;;;6.13;3.13;;;;;;;;;;5049481;28;20029;-70
2023/06/19 11:34:36;;;;;;;7.05;3.53;;;;;;;;;;5046799;28;20470;-70
2023/06/19 11:37:01;;;;;;;8.45;3.60;;;;;;;;;;5046974;28;20017;-70
2023/06/19 11:39:27;;;;;;;13.02;3.28;;;;;;;;;;5046693;28;20021;-70
2023/06/19 11:41:52;;;;;;;7.07;3.70;;;;;;;;;;5050230;28;20057;-70
2023/06/19 11:44:17;;;;;;;8.53;3.33;;;;;;;;;;5051979;28;20453;-70
2023/06/19 11:46:43;;;;;;;4.77;3.13;;;;;;;;;;5051160;28;20282;-70
2023/06/19 11:49:12;;;;;;;8.97;3.30;;;;;;;;;;5049817;28;20027;-70
2023/06/19 11:51:37;;;;;;;11.70;3.65;;;;;;;;;;5049046;28;20294;-70
2023/06/19 11:54:05;;;;;;;5.80;3.43;;;;;;;;;;5047476;28;20021;-70
2023/06/19 11:56:30;;;;;;;11.82;4.35;;;;;;;;;;5049558;28;20254;-70
2023/06/19 11:58:55;;;;;;;7.35;3.70;;;;;;;;;;5049956;28;20021;-70
2023/06/19 12:01:21;;;;;;;11.50;3.92;;;;;;;;;;5048197;28;20091;-70
2023/06/19 12:03:46;;;;;;;6.63;3.33;;;;;;;;;;5050211;28;20017;-70
2023/06/19 12:06:11;;;;;;;11.63;3.65;;;;;;;;;;5050788;28;20434;-70
2023/06/19 12:08:37;;;;;;;13.98;3.42;;;;;;;;;;5050016;28;20021;-70
2023/06/19 12:11:05;;;;;;;6.63;3.80;;;;;;;;;;5048062;28;20017;-70
2023/06/19 12:13:30;;;;;;;7.75;3.42;;;;;;;;;;5046090;28;20474;-70
2023/06/19 12:15:55;;;;;;;7.65;3.72;;;;;;;;;;5051209;28;20059;-70
2023/06/19 12:18:20;;;;;;;6.77;3.27;;;;;;;;;;5050128;28;20032;-70
2023/06/19 12:20:45;;;;;;;6.07;3.20;;;;;;;;;;5048648;28;20025;-70
2023/06/19 12:23:11;;;;;;;8.50;3.50;;;;;;;;;;5050387;28;20106;-70
2023/06/19 12:25:36;;;;;;;7.93;3.20;;;;;;;;;;5051718;28;20350;-70
2023/06/19 12:28:01;;;;;;;7.07;3.47;;;;;;;;;;5050809;28;20021;-72
2023/06/19 12:30:26;;;;;;;11.17;3.07;;;;;;;;;;5049840;28;20267;-70
2023/06/19 12:32:52;;;;;;;11.87;3.17;;;;;;;;;;5049320;28;20739;-70
2023/06/19 12:35:17;;;;;;;8.07;3.75;;;;;;;;;;5049436;28;20056;-70
2023/06/19 12:37:43;;;;;;;7.25;3.05;;;;;;;;;;5050383;28;20016;-70
2023/06/19 12:40:10;;;;;;;6.77;2.60;;;;;;;;;;5051018;28;20013;-70
2023/06/19 12:42:35;;;;;;;4.35;2.80;;;;;;;;;;5051006;28;20256;-70
2023/06/19 12:45:01;;;;;;;8.68;3.63;;;;;;;;;;5051332;28;20777;-70
2023/06/19 12:47:26;;;;;;;5.97;2.80;;;;;;;;;;5049032;28;20104;-71
2023/06/19 12:49:51;;;;;;;10.73;3.53;;;;;;;;;;5047164;28;20032;-70
2023/06/19 12:52:16;;;;;;;11.63;4.10;;;;;;;;;;5049609;28;20060;-70
2023/06/19 12:54:42;;;;;;;5.50;3.00;;;;;;;;;;5050681;28;20458;-70
2023/06/19 12:57:07;;;;;;;7.57;3.63;;;;;;;;;;5045058;28;20075;-70
2023/06/19 12:59:32;;;;;;;11.27;3.57;;;;;;;;;;5049807;28;20016;-70
2023/06/19 13:01:57;;;;;;;6.15;3.55;;;;;;;;;;5047384;28;20482;-70
2023/06/19 13:04:23;;;;;;;6.30;3.53;;;;;;;;;;5041997;28;20029;-70
2023/06/19 13:06:48;;;;;;;6.80;3.37;;;;;;;;;;5045295;28;20298;-70
2023/06/19 13:09:13;;;;;;;12.17;3.40;;;;;;;;;;5049418;28;20059;-70
2023/06/19 13:11:38;;;;;;;7.90;3.77;;;;;;;;;;5048465;28;20098;-70
2023/06/19 13:14:04;;;;;;;10.93;3.30;;;;;;;;;;5044608;28;20271;-70
2023/06/19 13:16:31;;;;;;;5.22;3.08;;;;;;;;;;5046347;28;20064;-70
2023/06/19 13:18:56;;;;;;;11.07;3.58;;;;;;;;;;5045625;28;20482;-70
2023/06/19 13:21:21;;;;;;;9.75;3.85;;;;;;;;;;5048844;28;20106;-70
2023/06/19 13:23:48;;;;;;;5.40;3.77;;;;;;;;;;5050500;28;20143;-73
2023/06/19 13:26:14;;;;;;;6.57;2.97;;;;;;;;;;5047977;28;21139;-71
2023/06/19 13:28:39;;;;;;;7.90;4.35;;;;;;;;;;5047659;28;20013;-71
2023/06/19 13:31:05;;;;;;;9.03;4.10;;;;;;;;;;5046602;28;20021;-71
2023/06/19 13:33:30;;;;;;;8.32;3.83;;;;;;;;;;5049162;28;20021;-71
2023/06/19 13:35:55;;;;;;;10.83;3.67;;;;;;;;;;5047633;28;20025;-71
2023/06/19 13:38:21;;;;;;;6.40;3.20;;;;;;;;;;5050135;28;20017;-71
2023/06/19 13:40:46;;;;;;;7.30;3.20;;;;;;;;;;5048074;28;20048;-71
2023/06/19 13:43:11;;;;;;;6.20;4.03;;;;;;;;;;5044071;28;20052;-71
2023/06/19 13:45:38;;;;;;;7.47;3.88;;;;;;;;;;5045239;28;20036;-71
2023/06/19 13:48:04;;;;;;;8.48;3.45;;;;;;;;;;5043312;28;20070;-72
2023/06/19 13:50:29;;;;;;;6.68;3.50;;;;;;;;;;5046931;28;20021;-71
2023/06/19 13:52:54;;;;;;;6.40;3.40;;;;;;;;;;5049133;28;20104;-72
2023/06/19 13:55:19;;;;;;;6.37;3.53;;;;;;;;;;5048576;28;20283;-72
2023/06/19 13:57:45;;;;;;;10.85;3.15;;;;;;;;;;5046081;28;20299;-72
2023/06/19 14:00:10;;;;;;;6.70;3.38;;;;;;;;;;5047951;28;20425;-72
2023/06/19 14:02:40;;;;;;;8.85;3.40;;;;;;;;;;5041995;28;20028;-75
2023/06/19 14:05:06;;;;;;;6.78;3.67;;;;;;;;;;5047515;28;20047;-71
2023/06/19 14:07:31;;;;;;;10.80;3.65;;;;;;;;;;5045600;28;20056;-72
2023/06/19 14:09:57;;;;;;;6.85;3.45;;;;;;;;;;5046828;28;20052;-71
2023/06/19 14:12:22;;;;;;;10.02;3.33;;;;;;;;;;5047429;28;20021;-73
2023/06/19 14:14:47;;;;;;;6.40;3.45;;;;;;;;;;5047984;28;20447;-71
2023/06/19 14:17:13;;;;;;;11.93;3.80;;;;;;;;;;5048853;28;20062;-71
2023/06/19 14:19:39;;;;;;;7.45;3.15;;;;;;;;;;5049119;28;20025;-71
2023/06/19 14:22:04;;;;;;;5.60;3.33;;;;;;;;;;5047022;28;20021;-71
2023/06/19 14:24:29;;;;;;;9.98;3.67;;;;;;;;;;5045833;28;20261;-71
2023/06/19 14:26:54;;;;;;;5.33;3.27;;;;;;;;;;5043167;28;20040;-71
2023/06/19 14:29:20;;;;;;;10.43;3.33;;;;;;;;;;5048861;28;20032;-71
2023/06/19 14:31:45;;;;;;;7.82;4.10;;;;;;;;;;5044568;28;20480;-71